Time;durP1;ratioP1;P1;durP2;ratioP2;P2;SDS_P1;SDS_P2;PMS_P1;PMS_P2;Temp;Humidity;BMP_temperature;BMP_pressure;BME280_temperature;BME280_humidity;BME280_pressure;Samples;Min_cycle;Max_cycle;Signal;HPM_P1;HPM_P2
2021/09/09 00:00:16;;;;;;;2.23;1.10;;;18.30;99.90;;;;;;4951421;29;20196;-85
2021/09/09 00:02:41;;;;;;;0.83;0.70;;;18.20;99.90;;;;;;4951836;29;20651;-86
2021/09/09 00:05:08;;;;;;;2.33;1.13;;;18.20;99.90;;;;;;4953212;29;20206;-86
2021/09/09 00:07:34;;;;;;;0.70;0.70;;;18.20;99.90;;;;;;4949398;29;21105;-86
2021/09/09 00:10:00;;;;;;;0.57;0.57;;;18.30;99.90;;;;;;4950625;29;20188;-86
2021/09/09 00:12:26;;;;;;;1.70;0.47;;;18.40;99.90;;;;;;4954685;28;20197;-86
2021/09/09 00:14:52;;;;;;;0.87;0.70;;;18.50;99.90;;;;;;4954003;29;20214;-85
2021/09/09 00:17:17;;;;;;;1.57;0.80;;;18.60;99.90;;;;;;4955764;29;20193;-86
2021/09/09 00:19:43;;;;;;;0.40;0.40;;;18.60;99.90;;;;;;4954935;29;20211;-86
2021/09/09 00:22:09;;;;;;;0.73;0.73;;;18.50;99.90;;;;;;4952225;29;20258;-87
2021/09/09 00:24:34;;;;;;;1.00;0.47;;;18.60;99.90;;;;;;4964012;28;20288;-86
2021/09/09 00:27:00;;;;;;;0.60;0.53;;;18.60;99.90;;;;;;4955490;29;20201;-86
2021/09/09 00:29:25;;;;;;;0.50;0.50;;;18.80;99.90;;;;;;4955434;29;20228;-86
2021/09/09 00:31:51;;;;;;;0.43;0.43;;;18.50;99.90;;;;;;4953114;29;20209;-86
2021/09/09 00:34:17;;;;;;;1.07;0.77;;;18.50;99.90;;;;;;4947669;28;20189;-85
2021/09/09 00:36:43;;;;;;;0.70;0.70;;;18.50;99.90;;;;;;4956223;29;20281;-86
2021/09/09 00:39:08;;;;;;;0.77;0.70;;;18.50;99.90;;;;;;4959792;28;20207;-86
2021/09/09 00:41:34;;;;;;;1.37;0.57;;;18.50;99.90;;;;;;4955323;29;20189;-86
2021/09/09 00:44:00;;;;;;;0.93;0.70;;;18.40;99.90;;;;;;4953949;29;20205;-86
2021/09/09 00:46:26;;;;;;;0.67;0.67;;;18.40;99.90;;;;;;4952031;29;20207;-86
2021/09/09 00:48:52;;;;;;;2.40;0.60;;;18.30;99.90;;;;;;4954031;29;20193;-86
2021/09/09 00:51:18;;;;;;;0.97;0.87;;;18.30;99.90;;;;;;4951930;29;20571;-86
2021/09/09 00:53:45;;;;;;;0.97;0.87;;;18.30;99.90;;;;;;4964782;28;20233;-86
2021/09/09 00:56:12;;;;;;;0.47;0.47;;;18.40;99.90;;;;;;4954993;28;20236;-86
2021/09/09 00:58:41;;;;;;;0.67;0.67;;;18.50;99.90;;;;;;4952851;29;21086;-86
2021/09/09 01:01:07;;;;;;;1.17;0.97;;;18.50;99.90;;;;;;4954706;29;20187;-86
2021/09/09 01:03:32;;;;;;;0.53;0.53;;;18.40;99.90;;;;;;4955574;29;20292;-86
2021/09/09 01:05:58;;;;;;;0.83;0.63;;;18.40;99.90;;;;;;4983631;28;20198;-86
2021/09/09 01:08:24;;;;;;;0.60;0.60;;;18.50;99.90;;;;;;4950092;29;20651;-86
2021/09/09 01:10:50;;;;;;;1.83;1.70;;;18.50;99.90;;;;;;4954673;29;20188;-86
2021/09/09 01:13:15;;;;;;;0.40;0.40;;;18.50;99.90;;;;;;4954384;29;20191;-86
2021/09/09 01:15:42;;;;;;;0.40;0.30;;;18.60;99.90;;;;;;4954024;28;20286;-86
2021/09/09 01:18:14;;;;;;;0.30;0.30;;;18.60;99.90;;;;;;4954488;29;20257;-86
2021/09/09 01:20:40;;;;;;;0.53;0.53;;;18.60;99.90;;;;;;4955537;28;20185;-86
2021/09/09 01:23:06;;;;;;;0.67;0.67;;;18.40;99.90;;;;;;4953773;29;20237;-86
2021/09/09 01:25:32;;;;;;;0.70;0.70;;;18.30;99.90;;;;;;4953713;28;20205;-86
2021/09/09 01:27:58;;;;;;;0.80;0.67;;;18.30;99.90;;;;;;4954293;29;20268;-86
2021/09/09 01:30:24;;;;;;;1.00;0.70;;;18.50;99.90;;;;;;4953782;29;20231;-86
2021/09/09 01:32:49;;;;;;;0.77;0.53;;;18.50;99.90;;;;;;4953869;29;20188;-87
2021/09/09 01:35:15;;;;;;;0.70;0.70;;;18.60;99.90;;;;;;4954944;28;20624;-85
2021/09/09 01:37:41;;;;;;;0.80;0.50;;;18.50;99.90;;;;;;4951046;28;20594;-86
2021/09/09 01:40:07;;;;;;;0.67;0.47;;;18.60;99.90;;;;;;4953948;29;20213;-86
2021/09/09 01:42:32;;;;;;;0.57;0.57;;;18.60;99.90;;;;;;4951813;29;20272;-86
2021/09/09 01:44:58;;;;;;;0.67;0.60;;;18.60;99.90;;;;;;4951630;28;20480;-85
2021/09/09 01:47:24;;;;;;;1.03;1.03;;;18.50;99.90;;;;;;4954142;29;20578;-85
2021/09/09 01:49:50;;;;;;;1.60;1.03;;;18.60;99.90;;;;;;4953496;29;20177;-86
2021/09/09 01:52:15;;;;;;;1.07;0.57;;;18.70;99.90;;;;;;4953480;29;20181;-86
2021/09/09 01:54:41;;;;;;;0.60;0.60;;;18.70;99.90;;;;;;4945227;29;20574;-86
2021/09/09 01:57:08;;;;;;;2.17;0.93;;;18.80;99.90;;;;;;4969997;28;20192;-86
2021/09/09 01:59:33;;;;;;;0.63;0.63;;;18.80;99.90;;;;;;4954714;28;20208;-85
2021/09/09 02:01:59;;;;;;;1.67;1.40;;;18.80;99.90;;;;;;4953449;29;20663;-87
2021/09/09 02:04:27;;;;;;;3.30;0.73;;;18.90;99.90;;;;;;4949992;29;20205;-86
2021/09/09 02:06:53;;;;;;;0.97;0.40;;;18.80;99.90;;;;;;4954436;29;20181;-86
2021/09/09 02:09:19;;;;;;;2.73;0.73;;;18.90;99.90;;;;;;4951667;29;20189;-85
2021/09/09 02:11:44;;;;;;;1.00;0.50;;;18.90;99.90;;;;;;4953093;29;20187;-86
2021/09/09 02:14:10;;;;;;;1.23;0.57;;;18.90;99.90;;;;;;4951381;29;20220;-86
2021/09/09 02:16:35;;;;;;;0.63;0.63;;;18.90;99.90;;;;;;4952899;28;20224;-86
2021/09/09 02:19:01;;;;;;;2.20;1.83;;;18.50;99.90;;;;;;4953154;29;20276;-86
2021/09/09 02:21:28;;;;;;;0.93;0.93;;;18.40;99.90;;;;;;4953492;29;20217;-86
2021/09/09 02:23:53;;;;;;;1.57;0.57;;;18.50;99.90;;;;;;4952091;29;20216;-86
2021/09/09 02:26:19;;;;;;;0.67;0.67;;;18.60;99.90;;;;;;4953439;28;20219;-86
2021/09/09 02:28:48;;;;;;;0.63;0.60;;;18.70;99.90;;;;;;4953012;28;20723;-86
2021/09/09 02:31:13;;;;;;;0.97;0.87;;;18.70;99.90;;;;;;4953136;29;20185;-85
2021/09/09 02:33:39;;;;;;;1.10;1.00;;;18.80;99.90;;;;;;4947659;29;20606;-85
2021/09/09 02:36:05;;;;;;;0.63;0.60;;;18.80;99.90;;;;;;4950960;28;20214;-85
2021/09/09 02:38:31;;;;;;;0.60;0.57;;;18.70;99.90;;;;;;4951744;29;20562;-85
2021/09/09 02:40:56;;;;;;;0.80;0.80;;;18.70;99.90;;;;;;4953075;29;20189;-85
2021/09/09 02:43:22;;;;;;;1.23;0.97;;;18.60;99.90;;;;;;4952335;29;20201;-85
2021/09/09 02:45:47;;;;;;;0.40;0.40;;;18.60;99.90;;;;;;4952875;28;20201;-85
2021/09/09 02:48:13;;;;;;;0.70;0.70;;;18.60;99.90;;;;;;4953126;29;20188;-85
2021/09/09 02:50:39;;;;;;;1.60;1.10;;;18.60;99.90;;;;;;4952476;29;20244;-85
2021/09/09 02:53:04;;;;;;;0.43;0.43;;;18.60;99.90;;;;;;4951207;29;20248;-85
2021/09/09 02:55:30;;;;;;;1.00;0.67;;;18.50;99.90;;;;;;4952698;29;20248;-85
2021/09/09 02:57:55;;;;;;;2.40;1.00;;;18.50;99.90;;;;;;4952978;29;20178;-85
2021/09/09 03:00:21;;;;;;;2.07;0.53;;;18.30;99.90;;;;;;4951821;29;20188;-85
2021/09/09 03:02:47;;;;;;;1.27;0.70;;;17.90;99.90;;;;;;4950829;29;20192;-84
2021/09/09 03:05:13;;;;;;;0.60;0.60;;;17.80;99.90;;;;;;4951684;28;20205;-85
2021/09/09 03:07:39;;;;;;;1.83;1.13;;;17.80;99.90;;;;;;4954083;28;20272;-85
2021/09/09 03:10:06;;;;;;;0.80;0.80;;;17.90;99.90;;;;;;4952380;29;20623;-85
2021/09/09 03:12:32;;;;;;;0.77;0.77;;;18.10;99.90;;;;;;4952992;29;20702;-85
2021/09/09 03:14:58;;;;;;;1.33;0.70;;;18.10;99.90;;;;;;4953333;28;20720;-85
2021/09/09 03:17:24;;;;;;;0.50;0.43;;;18.10;99.90;;;;;;4953173;29;20270;-85
2021/09/09 03:19:49;;;;;;;1.80;0.60;;;18.10;99.90;;;;;;4952774;29;20214;-85
2021/09/09 03:22:15;;;;;;;0.93;0.53;;;18.10;99.90;;;;;;4952573;29;20556;-85
2021/09/09 03:24:40;;;;;;;0.57;0.57;;;18.00;99.90;;;;;;4951577;28;20263;-85
2021/09/09 03:27:06;;;;;;;1.23;0.73;;;18.00;99.90;;;;;;4952900;29;20181;-85
2021/09/09 03:29:31;;;;;;;0.77;0.77;;;18.00;99.90;;;;;;4952239;29;20203;-85
2021/09/09 03:31:57;;;;;;;0.90;0.43;;;17.80;99.90;;;;;;4952724;29;20256;-84
2021/09/09 03:34:23;;;;;;;0.40;0.40;;;17.90;99.90;;;;;;4951842;28;20178;-85
2021/09/09 03:36:48;;;;;;;1.03;0.60;;;17.90;99.90;;;;;;4949903;28;20193;-85
2021/09/09 03:39:14;;;;;;;0.77;0.70;;;17.80;99.90;;;;;;4949305;28;20651;-84
2021/09/09 03:41:40;;;;;;;1.00;1.00;;;17.80;99.90;;;;;;4952291;29;20189;-85
2021/09/09 03:44:05;;;;;;;1.27;0.90;;;17.90;99.90;;;;;;4949506;28;20667;-85
2021/09/09 03:46:31;;;;;;;0.67;0.50;;;17.90;99.90;;;;;;4951902;28;20203;-85
2021/09/09 03:48:56;;;;;;;0.47;0.47;;;17.90;99.90;;;;;;4955581;29;20181;-84
2021/09/09 03:51:22;;;;;;;0.90;0.50;;;17.90;99.90;;;;;;4955936;29;20622;-85
2021/09/09 03:53:48;;;;;;;0.93;0.60;;;17.90;99.90;;;;;;4955454;29;20240;-85
2021/09/09 03:56:13;;;;;;;1.23;1.00;;;17.90;99.90;;;;;;4953098;29;20244;-85
2021/09/09 03:58:39;;;;;;;0.70;0.63;;;17.80;99.90;;;;;;4955823;29;20276;-85
2021/09/09 04:01:04;;;;;;;0.40;0.40;;;17.60;99.90;;;;;;4955780;29;20220;-86
2021/09/09 04:03:30;;;;;;;0.57;0.50;;;17.50;99.90;;;;;;4949213;29;20741;-85
2021/09/09 04:05:55;;;;;;;0.77;0.77;;;17.50;99.90;;;;;;4955599;29;20201;-85
2021/09/09 04:08:21;;;;;;;0.40;0.40;;;17.50;99.90;;;;;;4958248;28;20283;-85
2021/09/09 04:10:47;;;;;;;0.40;0.40;;;17.50;99.90;;;;;;4955314;29;20654;-85
2021/09/09 04:13:13;;;;;;;0.50;0.50;;;17.50;99.90;;;;;;4954650;29;20688;-85
2021/09/09 04:15:39;;;;;;;0.30;0.30;;;17.50;99.90;;;;;;4955570;29;20688;-85
2021/09/09 04:18:05;;;;;;;1.67;0.50;;;17.50;99.90;;;;;;4955748;29;20231;-85
2021/09/09 04:20:31;;;;;;;0.90;0.73;;;17.60;99.90;;;;;;4955849;29;20228;-85
2021/09/09 04:22:56;;;;;;;0.83;0.83;;;17.60;99.90;;;;;;4954887;29;20181;-85
2021/09/09 04:25:22;;;;;;;0.50;0.50;;;17.70;99.90;;;;;;4959924;28;20205;-84
2021/09/09 04:27:48;;;;;;;4.27;1.07;;;17.60;99.90;;;;;;4953769;29;20185;-85
2021/09/09 04:30:13;;;;;;;0.97;0.93;;;17.50;99.90;;;;;;4955049;29;20196;-84
2021/09/09 04:32:39;;;;;;;0.30;0.30;;;17.50;99.90;;;;;;4954819;29;20650;-85
2021/09/09 04:35:05;;;;;;;0.80;0.80;;;17.50;99.90;;;;;;4954733;28;20213;-84
2021/09/09 04:37:30;;;;;;;0.63;0.60;;;17.50;99.90;;;;;;4955288;29;20192;-85
2021/09/09 04:39:56;;;;;;;0.87;0.77;;;17.40;99.90;;;;;;4952639;28;20188;-84
2021/09/09 04:42:21;;;;;;;0.30;0.30;;;17.40;99.90;;;;;;4954922;29;20200;-85
2021/09/09 04:44:47;;;;;;;0.67;0.63;;;17.40;99.90;;;;;;4954609;28;20625;-83
2021/09/09 04:47:13;;;;;;;0.80;0.53;;;17.30;99.90;;;;;;4956170;29;20276;-84
2021/09/09 04:49:38;;;;;;;1.57;1.23;;;17.30;99.90;;;;;;4956545;29;20181;-84
2021/09/09 04:52:04;;;;;;;0.63;0.63;;;17.30;99.90;;;;;;4956410;29;20187;-84
2021/09/09 04:54:31;;;;;;;1.10;0.60;;;17.30;99.90;;;;;;4955210;28;20188;-84
2021/09/09 04:56:56;;;;;;;0.40;0.40;;;17.30;99.90;;;;;;4955950;29;20183;-84
2021/09/09 04:59:22;;;;;;;1.73;1.20;;;17.30;99.90;;;;;;4954916;28;20192;-84
2021/09/09 05:01:47;;;;;;;0.67;0.37;;;17.30;99.90;;;;;;4955394;29;20189;-85
2021/09/09 05:04:13;;;;;;;0.97;0.70;;;17.30;99.90;;;;;;4957004;28;20204;-85
2021/09/09 05:06:38;;;;;;;1.03;0.73;;;17.30;99.90;;;;;;4956465;29;20213;-84
2021/09/09 05:09:04;;;;;;;0.83;0.73;;;17.30;99.90;;;;;;4957088;28;20181;-84
2021/09/09 05:11:30;;;;;;;10.43;1.30;;;17.30;99.90;;;;;;4955920;29;20204;-84
2021/09/09 05:13:55;;;;;;;0.50;0.40;;;17.40;99.90;;;;;;4950463;29;20191;-85
2021/09/09 05:16:21;;;;;;;0.40;0.40;;;17.40;99.90;;;;;;4954273;28;20212;-85
2021/09/09 05:18:47;;;;;;;1.10;0.80;;;17.50;99.90;;;;;;4955206;28;20693;-85
2021/09/09 05:21:12;;;;;;;0.97;0.80;;;17.50;99.90;;;;;;4955257;29;20295;-85
2021/09/09 05:23:38;;;;;;;4.33;1.23;;;17.50;99.90;;;;;;4953828;29;20704;-85
2021/09/09 05:26:03;;;;;;;0.77;0.67;;;17.60;99.90;;;;;;4953707;28;20204;-85
2021/09/09 05:28:29;;;;;;;1.17;0.90;;;17.60;99.90;;;;;;4953935;29;20193;-85
2021/09/09 05:30:54;;;;;;;1.23;1.13;;;17.50;99.90;;;;;;4953889;29;20185;-85
2021/09/09 05:33:20;;;;;;;0.70;0.70;;;17.60;99.90;;;;;;4953880;29;20193;-85
2021/09/09 05:35:47;;;;;;;0.50;0.47;;;17.70;99.90;;;;;;4953807;28;20639;-86
2021/09/09 05:38:13;;;;;;;1.50;0.60;;;17.60;99.90;;;;;;4954119;29;20192;-85
2021/09/09 05:40:38;;;;;;;1.10;0.53;;;17.50;99.90;;;;;;4953688;29;20324;-84
2021/09/09 05:43:04;;;;;;;1.07;0.80;;;17.10;99.90;;;;;;4953811;29;20185;-85
2021/09/09 05:45:30;;;;;;;3.07;0.77;;;17.10;99.90;;;;;;4950829;29;20199;-84
2021/09/09 05:47:56;;;;;;;0.90;0.90;;;17.20;99.90;;;;;;4956068;28;20666;-83
2021/09/09 05:50:22;;;;;;;1.37;1.03;;;17.00;99.90;;;;;;4968367;28;20181;-84
2021/09/09 05:52:48;;;;;;;3.23;2.77;;;16.80;99.90;;;;;;4955118;29;20193;-84
2021/09/09 05:55:14;;;;;;;1.80;0.87;;;16.90;99.90;;;;;;4955897;28;20219;-84
2021/09/09 05:57:40;;;;;;;1.37;1.27;;;16.80;99.90;;;;;;4955881;28;20675;-83
2021/09/09 06:00:08;;;;;;;1.07;0.97;;;16.70;99.90;;;;;;4955803;28;20192;-83
2021/09/09 06:02:40;;;;;;;2.37;0.50;;;16.80;99.90;;;;;;4954636;28;20566;-85
2021/09/09 06:05:06;;;;;;;1.17;1.10;;;16.90;99.90;;;;;;4950906;28;21880;-84
2021/09/09 06:07:32;;;;;;;0.50;0.40;;;17.20;99.90;;;;;;4948226;29;20276;-84
2021/09/09 06:09:58;;;;;;;0.77;0.77;;;17.40;99.90;;;;;;4952119;28;20617;-85
2021/09/09 06:12:26;;;;;;;0.80;0.80;;;17.70;99.90;;;;;;4953730;29;20185;-85
2021/09/09 06:14:53;;;;;;;1.37;0.83;;;17.70;99.90;;;;;;4954630;28;20243;-84
2021/09/09 06:17:19;;;;;;;1.60;1.50;;;17.90;99.90;;;;;;4953553;29;20220;-84
2021/09/09 06:19:44;;;;;;;3.13;0.87;;;18.00;99.90;;;;;;4953245;29;20193;-84
2021/09/09 06:22:10;;;;;;;0.83;0.83;;;18.10;99.90;;;;;;4953477;29;20189;-85
2021/09/09 06:24:36;;;;;;;0.80;0.77;;;18.20;99.90;;;;;;4952367;28;20593;-84
2021/09/09 06:27:01;;;;;;;1.80;1.17;;;18.40;99.90;;;;;;4953127;29;20228;-85
2021/09/09 06:29:27;;;;;;;0.57;0.40;;;18.40;99.90;;;;;;4953028;29;20201;-85
2021/09/09 06:31:53;;;;;;;0.40;0.40;;;18.50;99.90;;;;;;4952405;29;20193;-84
2021/09/09 06:34:18;;;;;;;1.20;0.83;;;18.60;99.90;;;;;;4952524;29;20192;-84
2021/09/09 06:36:44;;;;;;;0.80;0.80;;;18.70;99.90;;;;;;4953143;29;20209;-84
2021/09/09 06:39:11;;;;;;;1.50;0.83;;;18.80;99.90;;;;;;4952725;29;20280;-84
2021/09/09 06:41:36;;;;;;;1.73;1.17;;;18.90;99.90;;;;;;4952538;29;20193;-84
2021/09/09 06:44:02;;;;;;;0.47;0.47;;;18.90;99.90;;;;;;4953030;29;20217;-85
2021/09/09 06:46:28;;;;;;;0.67;0.67;;;19.00;99.90;;;;;;4952872;29;20288;-84
2021/09/09 06:48:53;;;;;;;0.77;0.77;;;19.00;99.90;;;;;;4952880;29;20181;-84
2021/09/09 06:51:21;;;;;;;0.63;0.63;;;19.00;99.90;;;;;;4951650;29;20193;-85
2021/09/09 06:53:48;;;;;;;1.53;1.07;;;19.00;99.90;;;;;;4946441;29;20535;-85
2021/09/09 06:56:13;;;;;;;1.33;1.10;;;19.00;99.90;;;;;;4952047;28;20210;-85
2021/09/09 06:58:39;;;;;;;0.80;0.80;;;19.30;99.90;;;;;;4948978;29;20197;-85
2021/09/09 07:01:05;;;;;;;1.37;1.27;;;19.50;99.90;;;;;;4951082;29;20201;-84
2021/09/09 07:03:30;;;;;;;0.90;0.90;;;19.70;99.90;;;;;;4952994;28;20303;-84
2021/09/09 07:05:56;;;;;;;1.00;1.00;;;19.80;99.90;;;;;;4951373;28;20208;-84
2021/09/09 07:08:22;;;;;;;2.70;1.50;;;19.60;99.90;;;;;;4952206;28;20193;-84
2021/09/09 07:10:48;;;;;;;1.20;0.83;;;19.60;99.90;;;;;;4951919;29;20188;-86
2021/09/09 07:13:17;;;;;;;0.97;0.90;;;19.70;99.90;;;;;;4947044;28;20814;-85
2021/09/09 07:15:43;;;;;;;0.80;0.50;;;20.10;99.90;;;;;;4952345;28;20209;-85
2021/09/09 07:18:09;;;;;;;2.13;0.83;;;20.40;99.90;;;;;;4953819;29;20207;-86
2021/09/09 07:20:34;;;;;;;0.87;0.87;;;20.60;99.90;;;;;;4952501;29;20181;-85
2021/09/09 07:23:00;;;;;;;1.20;1.00;;;20.90;99.90;;;;;;4954733;28;20749;-86
2021/09/09 07:25:25;;;;;;;1.03;1.00;;;21.10;99.90;;;;;;4956330;28;20609;-84
2021/09/09 07:27:51;;;;;;;1.53;1.03;;;21.30;99.90;;;;;;4957041;28;20216;-85
2021/09/09 07:30:16;;;;;;;0.83;0.63;;;21.10;99.90;;;;;;4956449;29;20200;-85
2021/09/09 07:32:42;;;;;;;1.83;0.80;;;21.30;99.90;;;;;;4956100;29;20177;-86
2021/09/09 07:35:09;;;;;;;1.23;1.13;;;21.60;99.90;;;;;;4955823;28;20223;-85
2021/09/09 07:37:34;;;;;;;0.63;0.63;;;21.90;99.90;;;;;;4956438;29;20199;-86
2021/09/09 07:40:00;;;;;;;0.40;0.40;;;22.10;99.90;;;;;;4956109;29;20272;-85
2021/09/09 07:42:26;;;;;;;0.53;0.53;;;22.20;99.90;;;;;;4956277;29;20561;-85
2021/09/09 07:44:52;;;;;;;0.77;0.63;;;22.20;99.90;;;;;;4953037;29;20244;-85
2021/09/09 07:47:17;;;;;;;1.00;0.67;;;22.40;99.90;;;;;;4952644;29;20189;-85
2021/09/09 07:49:43;;;;;;;2.47;1.47;;;22.50;99.90;;;;;;4956043;29;20219;-85
2021/09/09 07:52:09;;;;;;;1.33;1.03;;;22.60;99.90;;;;;;4957131;29;20272;-85
2021/09/09 07:54:34;;;;;;;1.10;1.07;;;22.60;99.90;;;;;;4955571;28;20193;-85
2021/09/09 07:57:00;;;;;;;4.70;2.90;;;22.60;99.90;;;;;;4955852;29;20189;-85
2021/09/09 07:59:26;;;;;;;1.87;1.60;;;22.10;99.90;;;;;;4955810;29;20200;-85
2021/09/09 08:01:51;;;;;;;1.53;1.40;;;22.30;99.90;;;;;;4955895;29;20196;-85
2021/09/09 08:04:17;;;;;;;2.10;1.50;;;22.10;99.90;;;;;;4956445;28;20288;-86
2021/09/09 08:06:44;;;;;;;1.23;1.10;;;22.30;99.90;;;;;;4956721;29;20196;-85
2021/09/09 08:09:10;;;;;;;2.77;2.20;;;22.70;99.90;;;;;;4955441;29;20201;-85
2021/09/09 08:11:36;;;;;;;1.10;1.00;;;22.70;99.90;;;;;;4955624;29;20208;-86
2021/09/09 08:14:02;;;;;;;7.93;1.63;;;22.60;99.90;;;;;;4956434;29;20185;-85
2021/09/09 08:16:28;;;;;;;2.60;2.40;;;23.10;99.90;;;;;;4956489;29;20213;-85
2021/09/09 08:18:54;;;;;;;2.53;1.53;;;23.20;99.90;;;;;;4955507;29;20189;-85
2021/09/09 08:21:19;;;;;;;1.67;1.57;;;23.50;99.90;;;;;;4955414;29;20201;-86
2021/09/09 08:23:45;;;;;;;2.43;2.23;;;23.00;99.90;;;;;;4956146;28;20209;-85
2021/09/09 08:26:11;;;;;;;1.57;0.90;;;23.10;99.90;;;;;;4955109;29;20209;-85
2021/09/09 08:28:37;;;;;;;4.90;1.43;;;23.50;99.90;;;;;;4953606;29;20201;-85
2021/09/09 08:31:04;;;;;;;2.70;1.43;;;23.70;99.90;;;;;;4955220;29;20195;-85
2021/09/09 08:33:30;;;;;;;1.33;0.90;;;24.00;99.90;;;;;;4952133;28;20197;-89
2021/09/09 08:35:56;;;;;;;1.67;1.30;;;24.00;99.90;;;;;;4955157;28;20219;-85
2021/09/09 08:38:21;;;;;;;1.73;1.47;;;24.10;99.90;;;;;;4955854;28;20190;-85
2021/09/09 08:40:51;;;;;;;1.77;1.50;;;23.70;99.90;;;;;;4955025;29;20181;-85
2021/09/09 08:43:17;;;;;;;2.70;1.37;;;23.00;99.90;;;;;;4955031;29;20193;-83
2021/09/09 08:45:49;;;;;;;1.77;1.40;;;23.40;99.90;;;;;;4954587;29;20215;-84
2021/09/09 08:48:16;;;;;;;2.13;1.53;;;23.50;99.90;;;;;;4960024;28;20244;-84
2021/09/09 08:50:41;;;;;;;2.67;2.20;;;23.80;99.90;;;;;;4954969;29;20248;-84
2021/09/09 08:53:09;;;;;;;1.80;1.20;;;23.70;99.90;;;;;;4954717;29;20662;-84
2021/09/09 08:55:34;;;;;;;0.70;0.70;;;24.10;99.90;;;;;;4954718;29;20221;-84
2021/09/09 08:58:02;;;;;;;1.27;1.10;;;24.50;99.90;;;;;;4955084;29;20189;-84
2021/09/09 09:00:28;;;;;;;2.50;1.13;;;24.70;99.90;;;;;;4955155;28;20220;-84
2021/09/09 09:02:55;;;;;;;0.73;0.73;;;24.50;99.90;;;;;;4954257;29;20196;-85
2021/09/09 09:05:22;;;;;;;1.97;1.13;;;24.60;99.90;;;;;;4970302;28;20217;-84
2021/09/09 09:08:00;;;;;;;1.67;1.53;;;24.80;99.90;;;;;;4954126;29;20186;-85
2021/09/09 09:10:27;;;;;;;0.77;0.67;;;25.10;99.90;;;;;;4954502;29;20220;-84
2021/09/09 09:12:52;;;;;;;2.83;2.20;;;25.20;99.90;;;;;;4953595;29;20180;-85
2021/09/09 09:15:22;;;;;;;4.40;1.53;;;25.20;99.90;;;;;;4950605;28;20221;-84
2021/09/09 09:18:02;;;;;;;1.57;1.23;;;25.40;99.90;;;;;;4952565;29;20208;-85
2021/09/09 09:20:45;;;;;;;0.83;0.83;;;25.40;99.90;;;;;;4954880;29;20634;-84
2021/09/09 09:23:22;;;;;;;0.90;0.90;;;25.60;99.90;;;;;;4953290;29;20572;-85
2021/09/09 09:25:58;;;;;;;3.80;1.87;;;25.70;99.90;;;;;;4985269;28;20204;-84
2021/09/09 09:28:46;;;;;;;1.30;1.03;;;25.20;99.90;;;;;;4953225;29;20184;-84
2021/09/09 09:31:18;;;;;;;1.40;1.30;;;25.40;99.90;;;;;;4950122;29;20188;-84
2021/09/09 09:33:54;;;;;;;5.93;1.53;;;25.60;99.90;;;;;;4951563;28;20240;-84
2021/09/09 09:36:24;;;;;;;1.10;0.90;;;25.60;99.90;;;;;;4955290;29;20209;-84
2021/09/09 09:38:51;;;;;;;1.07;1.00;;;25.90;99.90;;;;;;4968754;28;20193;-84
2021/09/09 09:41:19;;;;;;;1.00;1.00;;;26.10;99.90;;;;;;4954436;29;20189;-84
2021/09/09 09:43:50;;;;;;;1.43;1.30;;;26.20;99.90;;;;;;4954081;29;20220;-84
2021/09/09 09:46:24;;;;;;;0.97;0.90;;;26.40;99.90;;;;;;4953678;28;20575;-84
2021/09/09 09:48:50;;;;;;;1.10;1.00;;;26.40;99.90;;;;;;4949083;29;20509;-84
2021/09/09 09:51:38;;;;;;;2.23;1.80;;;26.60;99.90;;;;;;4969500;28;20196;-84
2021/09/09 09:54:08;;;;;;;0.57;0.57;;;26.70;99.90;;;;;;4952540;29;20263;-84
2021/09/09 09:56:35;;;;;;;4.23;1.20;;;26.80;99.90;;;;;;4953729;28;20713;-85
2021/09/09 09:59:01;;;;;;;1.77;1.53;;;27.00;99.90;;;;;;4952959;29;20188;-85
2021/09/09 10:01:27;;;;;;;0.83;0.83;;;26.70;99.90;;;;;;4955315;29;20193;-83
2021/09/09 10:03:53;;;;;;;1.90;1.33;;;26.80;99.90;;;;;;4954269;29;20588;-84
2021/09/09 10:06:19;;;;;;;2.20;1.53;;;26.80;99.90;;;;;;4949153;28;20219;-84
2021/09/09 10:08:45;;;;;;;1.80;1.70;;;26.80;99.90;;;;;;4952834;29;20205;-84
2021/09/09 10:11:13;;;;;;;0.80;0.80;;;27.10;99.90;;;;;;4953432;29;20201;-84
2021/09/09 10:13:39;;;;;;;2.00;1.13;;;27.30;99.90;;;;;;4953509;28;20258;-84
2021/09/09 10:16:05;;;;;;;1.40;1.30;;;27.40;99.90;;;;;;4952909;28;20205;-85
2021/09/09 10:18:31;;;;;;;1.10;1.00;;;27.40;99.90;;;;;;4954409;29;20281;-84
2021/09/09 10:20:57;;;;;;;1.90;1.50;;;27.70;99.90;;;;;;4952831;29;20181;-84
2021/09/09 10:23:26;;;;;;;2.00;1.80;;;27.50;99.90;;;;;;4942213;28;20213;-84
2021/09/09 10:25:54;;;;;;;0.60;0.60;;;27.50;99.90;;;;;;4952556;28;20205;-84
2021/09/09 10:28:37;;;;;;;1.27;1.20;;;27.70;99.90;;;;;;4952229;29;20185;-84
2021/09/09 10:31:14;;;;;;;2.37;1.20;;;27.70;99.90;;;;;;4981177;28;20232;-86
2021/09/09 10:33:48;;;;;;;2.03;1.63;;;27.40;99.90;;;;;;4951761;29;20196;-85
2021/09/09 10:36:45;;;;;;;4.73;1.40;;;27.30;99.90;;;;;;4950346;28;20208;-85
2021/09/09 10:39:21;;;;;;;3.83;1.37;;;27.50;99.90;;;;;;4947032;29;20276;-85
2021/09/09 10:41:48;;;;;;;0.77;0.60;;;27.60;99.90;;;;;;4951599;29;20334;-85
2021/09/09 10:44:14;;;;;;;1.37;1.03;;;27.40;99.90;;;;;;4951890;29;20632;-86
2021/09/09 10:46:42;;;;;;;1.47;1.17;;;27.20;99.90;;;;;;4952375;28;20283;-86
2021/09/09 10:49:12;;;;;;;1.33;1.13;;;27.00;99.90;;;;;;4954093;29;20220;-86
2021/09/09 10:51:58;;;;;;;1.57;1.43;;;26.80;99.90;;;;;;4953821;28;20188;-86
2021/09/09 10:54:24;;;;;;;1.33;1.13;;;26.60;99.90;;;;;;4948877;29;20192;-85
2021/09/09 10:56:49;;;;;;;2.57;1.80;;;26.60;99.90;;;;;;4953524;28;20193;-84
2021/09/09 10:59:21;;;;;;;0.90;0.90;;;26.50;99.90;;;;;;4954016;29;20197;-85
2021/09/09 11:01:48;;;;;;;1.37;1.27;;;26.50;99.90;;;;;;4953320;28;20663;-86
2021/09/09 11:04:40;;;;;;;3.77;2.07;;;26.60;99.90;;;;;;4950559;29;20209;-85
2021/09/09 11:07:21;;;;;;;1.47;1.37;;;26.80;99.90;;;;;;4948000;29;20193;-85
2021/09/09 11:09:47;;;;;;;2.23;1.33;;;26.90;99.90;;;;;;4945290;29;20184;-85
2021/09/09 11:12:13;;;;;;;0.80;0.80;;;27.20;99.90;;;;;;4967886;28;20243;-85
2021/09/09 11:14:39;;;;;;;5.93;1.63;;;27.30;99.90;;;;;;4949147;29;20243;-86
2021/09/09 11:17:04;;;;;;;1.60;1.47;;;27.30;99.90;;;;;;4949070;29;20228;-85
2021/09/09 11:19:31;;;;;;;2.00;1.03;;;27.40;99.90;;;;;;4952056;29;20193;-85
2021/09/09 11:22:04;;;;;;;1.20;1.10;;;27.40;99.90;;;;;;4951941;29;20197;-85
2021/09/09 11:24:33;;;;;;;1.73;1.63;;;27.60;99.90;;;;;;4947953;28;20687;-85
2021/09/09 11:26:59;;;;;;;0.93;0.80;;;27.90;99.90;;;;;;4948296;28;20197;-85
2021/09/09 11:29:25;;;;;;;2.55;1.52;;;28.20;99.90;;;;;;4952143;29;20299;-86
2021/09/09 11:31:53;;;;;;;2.05;1.95;;;28.30;99.90;;;;;;4950762;29;20194;-84
2021/09/09 11:34:26;;;;;;;1.35;1.02;;;28.20;99.90;;;;;;4951020;28;20193;-86
2021/09/09 11:36:52;;;;;;;1.25;1.10;;;28.20;99.90;;;;;;4951089;29;20537;-85
2021/09/09 11:39:21;;;;;;;0.80;0.80;;;28.40;99.90;;;;;;4957734;28;20193;-86
2021/09/09 11:41:48;;;;;;;1.60;1.02;;;28.30;99.90;;;;;;4952258;29;20193;-85
2021/09/09 11:44:32;;;;;;;1.13;1.05;;;28.50;99.90;;;;;;4951890;29;20267;-85
2021/09/09 11:47:01;;;;;;;1.95;1.40;;;28.60;99.90;;;;;;4944016;29;20185;-86
2021/09/09 11:49:29;;;;;;;1.33;1.23;;;28.80;99.90;;;;;;4951533;29;20558;-86
2021/09/09 11:51:58;;;;;;;5.30;1.42;;;28.80;99.90;;;;;;4951710;29;20666;-85
2021/09/09 11:54:24;;;;;;;1.30;1.15;;;28.80;99.90;;;;;;4951264;28;20194;-86
2021/09/09 11:56:51;;;;;;;1.02;1.02;;;28.80;99.90;;;;;;4951349;29;20219;-85
2021/09/09 11:59:19;;;;;;;0.77;0.77;;;28.60;99.90;;;;;;4951354;28;20185;-86
2021/09/09 12:02:05;;;;;;;4.15;1.70;;;28.60;99.90;;;;;;4951510;29;20903;-85
2021/09/09 12:04:31;;;;;;;1.25;1.15;;;28.60;99.90;;;;;;4946318;28;20208;-85
2021/09/09 12:06:57;;;;;;;1.45;1.15;;;29.00;99.90;;;;;;4952121;29;20182;-86
2021/09/09 12:09:28;;;;;;;1.38;0.65;;;29.10;99.90;;;;;;4955035;28;20185;-85
2021/09/09 12:12:00;;;;;;;1.25;1.02;;;29.30;99.90;;;;;;4955331;29;20647;-86
2021/09/09 12:14:26;;;;;;;1.00;1.00;;;29.20;99.90;;;;;;4955114;28;20667;-85
2021/09/09 12:17:09;;;;;;;1.05;0.70;;;29.00;99.90;;;;;;4955182;29;20200;-86
2021/09/09 12:19:58;;;;;;;1.17;0.90;;;29.10;99.90;;;;;;4955577;29;20208;-85
2021/09/09 12:22:50;;;;;;;2.17;1.98;;;29.30;99.90;;;;;;4952036;29;20185;-86
2021/09/09 12:25:17;;;;;;;1.25;1.15;;;29.40;99.90;;;;;;4950982;28;20212;-85
2021/09/09 12:28:07;;;;;;;1.40;1.08;;;29.30;99.90;;;;;;4954974;29;20653;-85
2021/09/09 12:30:36;;;;;;;1.30;1.10;;;29.40;99.90;;;;;;4953887;28;20189;-86
2021/09/09 12:33:23;;;;;;;1.58;1.48;;;29.60;99.90;;;;;;4956200;28;20181;-85
2021/09/09 12:36:09;;;;;;;1.30;0.80;;;29.70;99.90;;;;;;4953516;29;20212;-85
2021/09/09 12:38:40;;;;;;;1.92;1.23;;;29.80;99.90;;;;;;4955392;29;20716;-85
2021/09/09 12:41:07;;;;;;;1.70;1.40;;;29.80;99.90;;;;;;4955044;28;20196;-86
2021/09/09 12:43:38;;;;;;;1.35;1.25;;;29.60;99.90;;;;;;4954413;29;20336;-86
2021/09/09 12:46:04;;;;;;;6.55;2.08;;;29.60;99.90;;;;;;4985183;28;20201;-85
2021/09/09 12:48:31;;;;;;;1.08;0.80;;;29.40;99.90;;;;;;4955015;29;20231;-86